Time;durP1;ratioP1;P1;durP2;ratioP2;P2;SDS_P1;SDS_P2;PMS_P1;PMS_P2;Temp;Humidity;BMP_temperature;BMP_pressure;BME280_temperature;BME280_humidity;BME280_pressure;Samples;Min_cycle;Max_cycle;Signal;HPM_P1;HPM_P2
2022/06/13 00:01:24;;;;;;;6.93;3.87;;;17.60;1.00;;;;;;5082567;28;20267;-92
2022/06/13 00:03:52;;;;;;;8.40;3.20;;;17.60;1.00;;;;;;5081800;28;20176;-94
2022/06/13 00:06:18;;;;;;;7.23;3.20;;;17.50;1.00;;;;;;5063240;28;20195;-92
2022/06/13 00:08:44;;;;;;;7.00;3.20;;;17.40;1.00;;;;;;5083621;28;20268;-93
2022/06/13 00:11:14;;;;;;;8.40;3.40;;;17.30;1.00;;;;;;5081185;28;20206;-95
2022/06/13 00:13:42;;;;;;;8.80;2.93;;;17.30;1.00;;;;;;5082389;28;20759;-94
2022/06/13 00:16:09;;;;;;;8.30;3.67;;;17.30;1.00;;;;;;5071621;28;20187;-87
2022/06/13 00:18:36;;;;;;;8.33;3.87;;;17.30;1.00;;;;;;5089246;28;20203;-96
2022/06/13 00:21:03;;;;;;;8.73;3.20;;;17.30;1.00;;;;;;5084071;28;20604;-93
2022/06/13 00:23:29;;;;;;;6.70;3.23;;;17.10;1.00;;;;;;5077387;28;20201;-86
2022/06/13 00:25:54;;;;;;;8.40;3.80;;;17.10;1.00;;;;;;5097684;28;20175;-89
2022/06/13 00:28:23;;;;;;;8.87;4.07;;;17.00;1.00;;;;;;5077456;28;20196;-90
2022/06/13 00:30:48;;;;;;;7.83;3.93;;;17.00;1.00;;;;;;5093993;28;20262;-89
2022/06/13 00:33:14;;;;;;;7.97;3.70;;;17.00;1.00;;;;;;5096717;28;20202;-92
2022/06/13 00:35:46;;;;;;;8.80;3.77;;;17.00;1.00;;;;;;5116665;28;20179;-85
2022/06/13 00:38:12;;;;;;;8.63;4.60;;;17.00;1.00;;;;;;5100469;28;20176;-85
2022/06/13 00:40:38;;;;;;;8.40;4.27;;;17.10;1.00;;;;;;5075368;28;20180;-85
2022/06/13 00:43:15;;;;;;;7.03;3.93;;;17.10;1.00;;;;;;5066418;28;20187;-86
2022/06/13 00:45:41;;;;;;;8.57;3.77;;;17.00;1.00;;;;;;5062474;28;20271;-93
2022/06/13 00:48:11;;;;;;;10.63;3.73;;;16.80;1.00;;;;;;5078606;28;20210;-90
2022/06/13 00:50:49;;;;;;;9.63;4.20;;;16.70;1.00;;;;;;5093970;28;20155;-84
2022/06/13 00:53:29;;;;;;;13.03;4.47;;;16.60;1.00;;;;;;5101889;28;20195;-85
2022/06/13 00:56:01;;;;;;;7.70;3.70;;;16.40;1.00;;;;;;5119880;28;20160;-85
2022/06/13 00:58:33;;;;;;;9.10;4.50;;;16.50;1.00;;;;;;5101377;28;20159;-90
2022/06/13 01:01:01;;;;;;;8.60;3.80;;;16.40;1.00;;;;;;5096489;28;20218;-94
2022/06/13 01:03:32;;;;;;;11.70;4.33;;;16.30;5.30;;;;;;5073327;28;20222;-94
2022/06/13 01:06:01;;;;;;;11.53;4.20;;;16.30;7.60;;;;;;5081650;28;20266;-94
2022/06/13 01:08:30;;;;;;;10.40;4.47;;;16.30;8.00;;;;;;5082960;28;20179;-91
2022/06/13 01:11:19;;;;;;;11.63;4.83;;;16.30;8.80;;;;;;5101435;28;20199;-85
2022/06/13 01:14:05;;;;;;;8.80;3.63;;;16.30;10.10;;;;;;5100936;28;20196;-83
2022/06/13 01:16:51;;;;;;;9.73;4.23;;;16.30;12.20;;;;;;5101596;28;20214;-85
2022/06/13 01:26:22;;;;;;;10.23;4.33;;;16.40;10.00;;;;;;5115126;28;20148;-84
2022/06/13 01:29:09;;;;;;;11.77;4.27;;;16.30;11.80;;;;;;5098869;28;20196;-86
2022/06/13 01:32:10;;;;;;;10.47;4.33;;;16.20;15.90;;;;;;5099548;28;20176;-85
2022/06/13 01:35:02;;;;;;;10.70;4.40;;;16.00;21.60;;;;;;5100895;28;20195;-85
2022/06/13 01:37:28;;;;;;;9.97;4.20;;;16.00;22.70;;;;;;5101709;28;20172;-86
2022/06/13 01:40:18;;;;;;;6.83;3.67;;;16.00;24.80;;;;;;5091784;28;20159;-85
2022/06/13 01:43:05;;;;;;;10.03;3.97;;;16.00;25.30;;;;;;5084279;28;20168;-86
2022/06/13 01:45:46;;;;;;;14.00;4.37;;;16.00;26.70;;;;;;5078683;28;20582;-85
2022/06/13 01:48:46;;;;;;;11.97;4.47;;;16.00;25.60;;;;;;5078099;28;20597;-85
2022/06/13 01:51:26;;;;;;;12.73;4.07;;;16.00;28.10;;;;;;5092197;28;20159;-90
2022/06/13 01:54:09;;;;;;;10.03;4.40;;;16.00;27.00;;;;;;5099151;28;20191;-91
2022/06/13 01:57:03;;;;;;;11.73;4.27;;;16.00;27.40;;;;;;5095630;28;20246;-86
2022/06/13 01:59:43;;;;;;;10.80;4.33;;;16.00;27.70;;;;;;5093757;28;20171;-88
2022/06/13 02:02:17;;;;;;;11.43;4.03;;;16.10;26.50;;;;;;5084902;28;20233;-92
2022/06/13 02:05:14;;;;;;;9.67;4.27;;;16.20;23.40;;;;;;5101376;28;20187;-92
2022/06/13 02:07:51;;;;;;;11.60;4.27;;;16.10;24.40;;;;;;5066957;28;20181;-92
2022/06/13 02:10:22;;;;;;;10.63;4.53;;;16.20;22.50;;;;;;5082454;28;20509;-92
2022/06/13 02:12:53;;;;;;;12.73;4.37;;;16.20;24.10;;;;;;5083189;28;20655;-94
2022/06/13 02:15:26;;;;;;;12.13;4.80;;;16.20;24.00;;;;;;5087651;28;20186;-91
2022/06/13 02:18:00;;;;;;;12.23;4.63;;;16.00;28.70;;;;;;5095501;28;20167;-92
2022/06/13 02:20:31;;;;;;;12.47;4.70;;;16.10;28.20;;;;;;5073735;28;20685;-85
2022/06/13 02:23:01;;;;;;;10.17;4.33;;;16.10;26.80;;;;;;5083712;28;20180;-85
2022/06/13 02:25:36;;;;;;;13.30;4.90;;;16.20;26.00;;;;;;5083712;28;20178;-93
2022/06/13 02:28:10;;;;;;;11.03;4.87;;;16.20;27.50;;;;;;5083516;28;20237;-85
2022/06/13 02:31:03;;;;;;;15.17;5.20;;;16.10;29.90;;;;;;5101110;28;20515;-85
2022/06/13 02:33:37;;;;;;;11.47;4.37;;;16.00;31.60;;;;;;5085248;28;20207;-85
2022/06/13 02:36:12;;;;;;;12.27;5.13;;;15.90;33.30;;;;;;5089792;28;20171;-83
2022/06/13 02:38:52;;;;;;;9.27;4.50;;;15.80;39.40;;;;;;5090055;28;20167;-87
2022/06/13 02:41:23;;;;;;;10.07;4.43;;;15.90;37.80;;;;;;5090206;28;20175;-84
2022/06/13 02:43:59;;;;;;;13.60;4.23;;;15.90;35.30;;;;;;5086229;28;20221;-84
2022/06/13 02:46:41;;;;;;;12.90;4.70;;;15.80;38.70;;;;;;5089180;28;20176;-86
2022/06/13 02:49:23;;;;;;;16.30;4.90;;;15.70;43.40;;;;;;5093233;28;20167;-85
2022/06/13 02:51:54;;;;;;;14.23;4.97;;;15.80;40.00;;;;;;5082439;28;20206;-84
2022/06/13 02:54:46;;;;;;;11.13;4.37;;;15.80;40.90;;;;;;5100843;28;20233;-86
2022/06/13 02:57:35;;;;;;;11.93;5.03;;;15.60;44.20;;;;;;5106120;28;20178;-84
2022/06/13 03:00:13;;;;;;;14.33;5.20;;;15.50;50.20;;;;;;5103099;28;20197;-88
2022/06/13 03:02:56;;;;;;;10.70;4.57;;;15.40;53.90;;;;;;5097452;28;20837;-84
2022/06/13 03:05:57;;;;;;;9.80;4.77;;;15.40;54.60;;;;;;5118481;28;20160;-87
2022/06/13 03:09:00;;;;;;;11.47;4.00;;;15.50;52.60;;;;;;5101177;28;20168;-85
2022/06/13 03:12:04;;;;;;;9.53;4.77;;;15.40;54.20;;;;;;5101983;28;20195;-84
2022/06/13 03:15:03;;;;;;;10.93;5.50;;;15.60;52.40;;;;;;5093833;28;20187;-92
2022/06/13 03:17:51;;;;;;;12.50;5.30;;;15.60;49.00;;;;;;5089155;28;20168;-84
2022/06/13 03:20:22;;;;;;;15.23;6.17;;;15.50;51.60;;;;;;5103213;28;20148;-88
2022/06/13 03:23:02;;;;;;;13.03;5.60;;;15.30;57.50;;;;;;5104504;28;20166;-86
2022/06/13 03:25:55;;;;;;;13.87;6.00;;;15.40;57.90;;;;;;5104127;28;20152;-87
2022/06/13 03:28:30;;;;;;;12.57;5.47;;;15.40;57.60;;;;;;5101833;28;20246;-88
2022/06/13 03:31:27;;;;;;;10.83;5.13;;;15.30;60.40;;;;;;5088716;28;20165;-96
2022/06/13 03:34:00;;;;;;;13.13;5.00;;;15.30;64.00;;;;;;5085469;28;20219;-89
2022/06/13 03:36:39;;;;;;;11.37;5.73;;;15.30;61.90;;;;;;5086611;28;20537;-93
2022/06/13 03:39:14;;;;;;;11.43;5.23;;;15.30;62.50;;;;;;5084108;28;20198;-86
2022/06/13 03:41:52;;;;;;;12.53;5.50;;;15.40;63.90;;;;;;5098015;28;20159;-86
2022/06/13 03:44:23;;;;;;;8.80;4.70;;;15.30;63.90;;;;;;5103376;28;20147;-86
2022/06/13 03:46:58;;;;;;;12.57;5.03;;;15.50;62.90;;;;;;5103371;28;20176;-86
2022/06/13 03:49:37;;;;;;;12.77;5.17;;;15.40;63.00;;;;;;5119112;28;20203;-83
2022/06/13 03:52:09;;;;;;;11.60;4.73;;;15.20;66.70;;;;;;5099354;28;20198;-85
2022/06/13 03:54:51;;;;;;;11.80;6.17;;;15.20;69.90;;;;;;5097247;28;20167;-85
2022/06/13 03:57:30;;;;;;;13.53;5.67;;;15.20;70.70;;;;;;5115678;28;20203;-86
2022/06/13 04:00:08;;;;;;;15.17;5.80;;;15.10;73.30;;;;;;5080042;28;20178;-86
2022/06/13 04:02:38;;;;;;;14.37;6.00;;;15.20;75.30;;;;;;5114729;28;20226;-87
2022/06/13 04:05:14;;;;;;;13.20;5.73;;;15.10;76.50;;;;;;5095252;28;20164;-84
2022/06/13 04:07:42;;;;;;;14.17;6.03;;;15.20;73.70;;;;;;5079141;28;20242;-84
2022/06/13 04:10:12;;;;;;;14.93;5.60;;;15.20;73.10;;;;;;5080037;28;20203;-87
2022/06/13 04:13:08;;;;;;;17.43;5.97;;;15.20;73.20;;;;;;5097609;28;20199;-86
2022/06/13 04:16:03;;;;;;;15.03;5.33;;;15.20;74.80;;;;;;5089940;28;20187;-86
2022/06/13 04:18:48;;;;;;;11.93;5.57;;;15.40;73.20;;;;;;5095257;28;20310;-88
2022/06/13 04:21:35;;;;;;;16.93;5.27;;;15.40;70.50;;;;;;5094317;28;20694;-92
2022/06/13 04:24:20;;;;;;;12.23;5.90;;;15.40;72.10;;;;;;5089139;28;20174;-94
2022/06/13 04:26:54;;;;;;;12.17;5.43;;;15.40;71.20;;;;;;5083214;28;20600;-95
2022/06/13 04:29:34;;;;;;;11.07;5.03;;;15.50;69.50;;;;;;5085787;28;20186;-93
2022/06/13 04:32:05;;;;;;;15.13;5.67;;;15.50;68.70;;;;;;5089709;28;20168;-89
2022/06/13 04:34:45;;;;;;;10.23;5.40;;;15.50;68.40;;;;;;5089896;28;20242;-89
2022/06/13 04:37:11;;;;;;;13.70;5.67;;;15.50;69.30;;;;;;5087149;28;20170;-94
2022/06/13 04:39:39;;;;;;;15.43;6.17;;;15.60;65.00;;;;;;5091337;28;20191;-86
2022/06/13 04:42:07;;;;;;;15.33;5.50;;;15.80;64.00;;;;;;5102262;28;20202;-85
2022/06/13 04:44:35;;;;;;;15.47;6.17;;;15.70;62.50;;;;;;5098314;28;20224;-86
2022/06/13 04:47:03;;;;;;;12.90;5.67;;;15.90;59.00;;;;;;5093945;28;20723;-92
2022/06/13 04:49:49;;;;;;;14.07;6.20;;;15.80;59.10;;;;;;5082608;28;20168;-88
2022/06/13 04:52:19;;;;;;;16.97;5.73;;;15.60;63.60;;;;;;5089455;28;20230;-85
2022/06/13 04:54:50;;;;;;;12.67;6.17;;;15.60;67.00;;;;;;5091773;28;20172;-87
2022/06/13 04:57:18;;;;;;;18.73;6.27;;;15.60;65.90;;;;;;5082829;28;20223;-90
2022/06/13 04:59:45;;;;;;;16.63;6.07;;;15.70;66.00;;;;;;5080256;28;20258;-93
2022/06/13 05:02:15;;;;;;;17.13;6.33;;;15.80;62.70;;;;;;5078948;28;20231;-85
2022/06/13 05:04:41;;;;;;;12.47;6.43;;;15.90;61.50;;;;;;5101969;28;20209;-89
2022/06/13 05:07:13;;;;;;;13.63;6.43;;;16.20;56.50;;;;;;5099760;28;20191;-86
2022/06/13 05:09:50;;;;;;;12.30;5.57;;;16.20;53.60;;;;;;5097959;28;20168;-92
2022/06/13 05:12:25;;;;;;;15.30;5.93;;;16.20;53.70;;;;;;5109459;28;20558;-91
2022/06/13 05:15:03;;;;;;;16.30;6.13;;;16.40;49.10;;;;;;5090559;28;20175;-90
2022/06/13 05:17:32;;;;;;;11.73;5.53;;;16.50;44.90;;;;;;5092644;28;20222;-86
2022/06/13 05:20:00;;;;;;;13.83;5.90;;;16.60;40.80;;;;;;5086589;28;20242;-93
2022/06/13 05:22:56;;;;;;;13.17;5.50;;;16.40;45.50;;;;;;5089446;28;20167;-92
2022/06/13 05:25:28;;;;;;;13.43;5.40;;;16.50;46.90;;;;;;5091007;28;20175;-90
2022/06/13 05:27:54;;;;;;;15.03;6.10;;;16.60;43.30;;;;;;5105286;28;20183;-91
2022/06/13 05:30:21;;;;;;;14.73;6.20;;;16.80;40.50;;;;;;5093754;28;20274;-87
2022/06/13 05:32:48;;;;;;;15.40;5.63;;;16.90;27.70;;;;;;5095546;28;20219;-89
2022/06/13 05:35:19;;;;;;;14.77;6.03;;;16.90;28.50;;;;;;5110292;28;20168;-90
2022/06/13 05:37:52;;;;;;;17.37;6.77;;;17.00;25.80;;;;;;5099993;28;20159;-86
2022/06/13 05:40:20;;;;;;;14.13;5.67;;;17.10;23.50;;;;;;5094047;28;20178;-89
2022/06/13 05:42:47;;;;;;;15.37;5.90;;;17.10;22.00;;;;;;5107562;28;20206;-92
2022/06/13 05:45:15;;;;;;;14.00;5.93;;;17.20;24.40;;;;;;5106090;28;20160;-92
2022/06/13 05:47:44;;;;;;;13.93;5.60;;;17.30;20.50;;;;;;5101895;28;20160;-90
2022/06/13 05:50:15;;;;;;;14.60;5.77;;;17.40;20.30;;;;;;5086869;28;20167;-91
2022/06/13 05:52:42;;;;;;;14.17;5.40;;;17.40;21.00;;;;;;5079680;28;20261;-93
2022/06/13 05:55:10;;;;;;;10.33;5.33;;;17.40;21.30;;;;;;5098764;28;20174;-94
2022/06/13 05:57:51;;;;;;;15.90;5.70;;;17.50;20.40;;;;;;5072999;28;20182;-86
2022/06/13 06:00:22;;;;;;;14.77;5.90;;;17.80;11.70;;;;;;5075888;28;20168;-90
2022/06/13 06:02:48;;;;;;;15.63;6.77;;;17.90;4.90;;;;;;5074815;28;20176;-84
2022/06/13 06:05:15;;;;;;;16.63;5.70;;;17.70;6.30;;;;;;5103347;28;20263;-83
2022/06/13 06:07:41;;;;;;;15.20;5.97;;;17.40;16.10;;;;;;5110498;28;20164;-86
2022/06/13 06:10:15;;;;;;;13.40;5.77;;;17.50;17.70;;;;;;5097162;28;20593;-84
2022/06/13 06:12:43;;;;;;;17.87;6.00;;;17.50;14.00;;;;;;5086986;28;20214;-87
2022/06/13 06:15:10;;;;;;;14.73;5.10;;;17.50;15.30;;;;;;5099266;28;20168;-90
2022/06/13 06:17:35;;;;;;;13.43;5.60;;;17.60;11.80;;;;;;5085194;28;20191;-84
2022/06/13 06:20:01;;;;;;;14.77;5.50;;;17.80;1.20;;;;;;5102020;28;20230;-87
2022/06/13 06:22:27;;;;;;;11.73;4.90;;;17.80;1.00;;;;;;5099462;28;20182;-88
2022/06/13 06:24:54;;;;;;;10.40;4.70;;;17.80;1.00;;;;;;5118505;28;20164;-90
2022/06/13 06:27:24;;;;;;;14.60;4.73;;;17.60;1.00;;;;;;5056382;22;20221;-86
2022/06/13 06:29:55;;;;;;;11.40;4.90;;;17.30;3.10;;;;;;5037515;28;20150;-88
2022/06/13 06:32:44;;;;;;;12.10;4.63;;;17.20;3.00;;;;;;5052996;28;20193;-93
2022/06/13 06:35:41;;;;;;;14.53;5.37;;;17.10;6.30;;;;;;5049917;28;20216;-85
2022/06/13 06:38:07;;;;;;;10.50;4.70;;;17.00;12.00;;;;;;5027501;28;20181;-91
2022/06/13 06:40:41;;;;;;;10.63;4.93;;;17.00;6.80;;;;;;5021617;28;20169;-89
2022/06/13 06:43:07;;;;;;;11.73;5.13;;;17.00;5.20;;;;;;5026976;28;20201;-87
2022/06/13 06:45:33;;;;;;;16.03;4.80;;;17.00;9.40;;;;;;5026101;28;20176;-94
2022/06/13 06:48:00;;;;;;;15.47;4.60;;;17.00;3.90;;;;;;5024243;28;20201;-90
2022/06/13 06:50:30;;;;;;;12.73;4.67;;;16.90;3.80;;;;;;5034794;28;20174;-84
2022/06/13 06:52:56;;;;;;;12.90;4.47;;;16.80;13.30;;;;;;5035089;28;20209;-84
2022/06/13 07:01:04;;;;;;;10.50;4.77;;;17.00;8.30;;;;;;5055128;28;20211;-83
2022/06/13 07:03:38;;;;;;;10.93;4.07;;;17.10;5.10;;;;;;5057818;28;20170;-84
2022/06/13 07:06:07;;;;;;;7.97;3.63;;;17.20;1.00;;;;;;5040949;28;20189;-84
2022/06/13 07:08:49;;;;;;;10.63;3.80;;;17.20;1.00;;;;;;5042800;28;20194;-90
2022/06/13 07:14:10;;;;;;;9.47;3.53;;;17.60;1.00;;;;;;5043168;28;20243;-88
2022/06/13 07:16:36;;;;;;;8.73;3.03;;;17.50;1.00;;;;;;5040899;28;20162;-88
2022/06/13 07:19:03;;;;;;;6.33;2.50;;;17.50;1.00;;;;;;5051076;28;20200;-87
2022/06/13 07:21:28;;;;;;;7.00;2.73;;;17.50;1.00;;;;;;5058685;28;20199;-94
2022/06/13 07:23:56;;;;;;;8.67;2.83;;;17.60;1.00;;;;;;5058760;28;20181;-86
2022/06/13 07:26:22;;;;;;;8.17;2.80;;;17.50;1.00;;;;;;5057450;28;20284;-93
2022/06/13 07:29:16;;;;;;;7.13;2.60;;;17.60;1.00;;;;;;5077215;28;20220;-84
2022/06/13 07:32:27;;;;;;;6.17;2.70;;;17.70;1.00;;;;;;5075540;28;20164;-94
2022/06/13 07:34:58;;;;;;;9.37;2.70;;;17.60;1.00;;;;;;5054053;28;20215;-87
2022/06/13 07:40:49;;;;;;;9.27;2.93;;;17.90;1.00;;;;;;5078906;28;20180;-90
2022/06/13 07:43:52;;;;;;;6.63;2.17;;;18.00;1.00;;;;;;5076873;28;20228;-83
2022/06/13 07:46:25;;;;;;;7.33;2.23;;;18.10;1.00;;;;;;5058320;28;20201;-89
2022/06/13 07:48:52;;;;;;;8.43;2.30;;;18.20;1.00;;;;;;5071290;28;20174;-93
2022/06/13 07:51:23;;;;;;;7.70;3.00;;;18.20;1.00;;;;;;5073032;28;20243;-89
2022/06/13 07:54:10;;;;;;;5.93;2.47;;;18.10;1.00;;;;;;5063139;28;20216;-84
2022/06/13 07:56:38;;;;;;;8.07;2.37;;;18.20;1.00;;;;;;5062164;28;20204;-84
2022/06/13 07:59:29;;;;;;;8.03;2.67;;;18.10;1.00;;;;;;5077202;28;20267;-96
2022/06/13 08:01:58;;;;;;;10.93;3.07;;;18.10;1.00;;;;;;5077585;28;20257;-91
2022/06/13 08:04:25;;;;;;;7.03;2.33;;;18.20;1.00;;;;;;5071297;28;20158;-94
2022/06/13 08:06:51;;;;;;;8.30;3.00;;;18.20;1.00;;;;;;5055959;28;20203;-96
2022/06/13 08:09:24;;;;;;;8.77;2.93;;;18.10;1.00;;;;;;5059506;28;20166;-96
2022/06/13 08:11:53;;;;;;;7.53;2.87;;;18.00;1.00;;;;;;5062569;28;20168;-89
2022/06/13 08:14:19;;;;;;;7.27;2.83;;;17.90;1.00;;;;;;5062012;28;20259;-92
2022/06/13 08:16:48;;;;;;;9.93;2.70;;;18.20;1.00;;;;;;5079645;28;20149;-83
2022/06/13 08:19:13;;;;;;;8.70;2.93;;;18.30;1.00;;;;;;5042729;28;20200;-83
2022/06/13 08:21:47;;;;;;;10.67;3.87;;;18.40;1.00;;;;;;5059233;28;20168;-83
2022/06/13 08:24:18;;;;;;;8.47;2.90;;;18.30;1.00;;;;;;5047668;28;20205;-83
2022/06/13 08:26:48;;;;;;;10.93;3.30;;;18.30;1.00;;;;;;5044855;28;20210;-83
2022/06/13 08:29:15;;;;;;;10.57;3.13;;;18.50;1.00;;;;;;5048090;28;20183;-83
2022/06/13 08:31:41;;;;;;;14.70;4.80;;;18.60;1.00;;;;;;5043526;28;20184;-83
2022/06/13 08:34:07;;;;;;;19.90;4.47;;;18.60;1.00;;;;;;5045579;28;20594;-82
2022/06/13 08:36:37;;;;;;;11.73;3.33;;;18.70;1.00;;;;;;5058089;28;20198;-84
2022/06/13 08:39:03;;;;;;;10.27;3.27;;;18.40;1.00;;;;;;5077731;28;20213;-83
2022/06/13 08:41:58;;;;;;;9.10;3.17;;;18.40;1.00;;;;;;5074288;28;20700;-83
2022/06/13 08:44:37;;;;;;;7.30;3.03;;;18.30;1.00;;;;;;5055290;28;20195;-92
2022/06/13 08:47:41;;;;;;;11.73;3.97;;;18.30;1.00;;;;;;5052646;28;20188;-94
2022/06/13 08:50:40;;;;;;;10.53;3.73;;;18.60;1.00;;;;;;5053670;28;20212;-87
2022/06/13 08:53:35;;;;;;;8.13;3.30;;;18.80;1.00;;;;;;5069297;28;20232;-85
2022/06/13 08:56:11;;;;;;;12.37;4.17;;;18.80;1.00;;;;;;5074512;28;20200;-85
2022/06/13 08:58:53;;;;;;;8.07;3.40;;;19.00;1.00;;;;;;5046477;28;20196;-85
2022/06/13 09:01:37;;;;;;;10.90;3.77;;;18.90;1.00;;;;;;5044564;28;20228;-84
2022/06/13 09:04:17;;;;;;;7.40;2.93;;;19.10;1.00;;;;;;5047684;28;20172;-84
2022/06/13 09:07:43;;;;;;;6.93;2.77;;;19.20;99.90;;;;;;5043778;28;20230;-85
2022/06/13 09:10:49;;;;;;;6.23;2.43;;;19.10;99.90;;;;;;4994777;28;20184;-86
2022/06/13 09:13:38;;;;;;;9.53;3.00;;;19.40;99.90;;;;;;5053062;28;20205;-93
2022/06/13 09:16:34;;;;;;;6.03;2.63;;;19.50;1.00;;;;;;5051027;28;20177;-92
2022/06/13 09:19:00;;;;;;;7.87;1.87;;;19.20;1.00;;;;;;5068487;28;20208;-90
2022/06/13 09:21:30;;;;;;;6.67;2.43;;;18.80;1.00;;;;;;5052517;28;20188;-90
2022/06/13 09:24:24;;;;;;;7.63;2.47;;;18.60;62.10;;;;;;5044133;28;20270;-88
2022/06/13 09:27:06;;;;;;;7.07;2.40;;;18.70;99.90;;;;;;5039104;28;20200;-85
2022/06/13 09:29:42;;;;;;;8.80;2.93;;;18.80;99.90;;;;;;5039332;28;20184;-85
2022/06/13 09:32:39;;;;;;;9.20;2.97;;;18.60;99.90;;;;;;5050833;28;20182;-84
2022/06/13 09:35:36;;;;;;;9.43;2.77;;;18.50;99.90;;;;;;5051981;28;20184;-85
2022/06/13 09:38:31;;;;;;;10.00;2.93;;;18.60;99.90;;;;;;5064875;28;20258;-86
2022/06/13 09:41:13;;;;;;;5.77;2.47;;;18.80;99.90;;;;;;5052351;28;20228;-86
2022/06/13 09:44:25;;;;;;;8.00;2.53;;;18.90;99.90;;;;;;5057498;28;20173;-86
2022/06/13 09:46:59;;;;;;;6.70;2.67;;;18.80;99.90;;;;;;5056561;28;20172;-85
2022/06/13 09:49:36;;;;;;;7.33;2.50;;;19.00;99.90;;;;;;5054343;28;20173;-93
2022/06/13 09:52:35;;;;;;;5.33;2.03;;;18.90;99.90;;;;;;5049754;28;20180;-96
2022/06/13 09:55:26;;;;;;;6.23;1.90;;;19.10;25.50;;;;;;5054502;28;20177;-95
2022/06/13 09:58:22;;;;;;;7.37;1.77;;;19.10;1.00;;;;;;5074111;28;20239;-87
2022/06/13 10:01:15;;;;;;;6.77;1.90;;;18.90;1.00;;;;;;5059143;28;20169;-83
2022/06/13 10:04:07;;;;;;;5.90;1.90;;;18.80;47.10;;;;;;5056243;28;20153;-84
2022/06/13 10:06:57;;;;;;;5.87;1.67;;;18.80;1.00;;;;;;5077250;28;20159;-85
2022/06/13 10:09:59;;;;;;;4.37;1.50;;;19.00;35.20;;;;;;5058326;28;20171;-94
2022/06/13 10:12:51;;;;;;;4.67;1.50;;;19.30;1.00;;;;;;5071864;28;20223;-88
2022/06/13 10:15:19;;;;;;;5.43;1.57;;;19.20;1.00;;;;;;5060161;28;20216;-85
2022/06/13 10:18:38;;;;;;;3.47;1.57;;;19.20;1.00;;;;;;5060677;28;20180;-86
2022/06/13 10:21:16;;;;;;;5.27;1.90;;;19.20;99.90;;;;;;5060220;28;20177;-86
2022/06/13 10:24:43;;;;;;;4.17;1.50;;;19.40;99.90;;;;;;5058106;28;20196;-88
2022/06/13 10:27:30;;;;;;;4.03;1.50;;;19.40;99.90;;;;;;5054992;28;20211;-89
2022/06/13 10:30:26;;;;;;;4.23;1.50;;;19.50;99.90;;;;;;5049454;28;20241;-88
2022/06/13 10:33:33;;;;;;;2.83;1.40;;;19.60;99.90;;;;;;5066491;28;20197;-92
2022/06/13 10:36:10;;;;;;;4.77;1.77;;;19.60;1.00;;;;;;5051306;28;20177;-86
2022/06/13 10:39:13;;;;;;;4.53;1.60;;;19.60;99.90;;;;;;5052670;28;20170;-86
2022/06/13 10:41:44;;;;;;;4.13;1.20;;;19.50;1.00;;;;;;5041003;28;20177;-92
2022/06/13 10:44:14;;;;;;;4.87;1.57;;;19.30;1.00;;;;;;5074277;28;20181;-85
2022/06/13 10:47:29;;;;;;;3.90;1.43;;;19.70;1.00;;;;;;5066127;28;20178;-91
2022/06/13 10:50:10;;;;;;;5.10;1.87;;;19.70;1.00;;;;;;5054623;28;20533;-86
2022/06/13 10:52:45;;;;;;;5.50;1.40;;;19.70;99.90;;;;;;5072707;28;20585;-87
2022/06/13 10:55:15;;;;;;;6.17;1.90;;;19.60;1.00;;;;;;5048251;28;20165;-93
2022/06/13 10:58:10;;;;;;;3.17;1.13;;;19.50;1.00;;;;;;5054077;28;20174;-87
2022/06/13 11:00:42;;;;;;;6.23;1.33;;;19.30;1.00;;;;;;5047948;28;20204;-87
2022/06/13 11:03:35;;;;;;;3.70;1.43;;;19.40;1.00;;;;;;5060354;28;20178;-89
2022/06/13 11:06:05;;;;;;;6.47;1.50;;;19.60;1.00;;;;;;5054248;28;20179;-87
2022/06/13 11:08:34;;;;;;;4.60;1.50;;;19.90;1.00;;;;;;5048057;28;20188;-88
2022/06/13 11:11:03;;;;;;;4.67;1.77;;;19.90;1.00;;;;;;5045975;28;20206;-92
2022/06/13 11:13:34;;;;;;;4.53;1.97;;;19.90;99.90;;;;;;5042057;28;20241;-86
2022/06/13 11:24:55;;;;;;;4.43;1.67;;;19.70;1.00;;;;;;5070268;28;20178;-84
2022/06/13 11:27:39;;;;;;;6.17;1.80;;;19.90;99.90;;;;;;5058393;28;20200;-88
2022/06/13 11:30:29;;;;;;;4.37;1.63;;;19.90;99.90;;;;;;5051903;28;20206;-89
2022/06/13 11:33:22;;;;;;;7.63;2.30;;;20.10;1.00;;;;;;5052697;28;20215;-87
2022/06/13 11:35:59;;;;;;;7.17;2.00;;;19.80;99.90;;;;;;5044147;28;20171;-87
2022/06/13 11:38:37;;;;;;;3.80;1.67;;;19.70;99.90;;;;;;5037726;28;20194;-90
2022/06/13 11:41:33;;;;;;;6.50;1.57;;;19.70;99.90;;;;;;5031788;28;20196;-91
2022/06/13 11:44:08;;;;;;;4.57;1.40;;;19.60;99.90;;;;;;5044515;28;20205;-94
2022/06/13 11:46:36;;;;;;;4.80;1.67;;;19.60;1.00;;;;;;5029016;28;20217;-88
2022/06/13 11:49:37;;;;;;;5.87;1.80;;;19.70;1.00;;;;;;5033038;28;20182;-90
2022/06/13 11:52:11;;;;;;;6.53;1.93;;;19.60;99.90;;;;;;5041110;28;20776;-91
2022/06/13 11:54:46;;;;;;;5.50;1.80;;;19.70;1.00;;;;;;5028906;28;20186;-92
2022/06/13 11:57:26;;;;;;;5.00;1.70;;;19.60;99.90;;;;;;5054963;28;20172;-85
2022/06/13 12:00:18;;;;;;;3.97;1.40;;;19.50;1.00;;;;;;5042495;28;20203;-91
2022/06/13 12:02:51;;;;;;;3.97;1.40;;;19.70;1.00;;;;;;5036908;28;20209;-94
2022/06/13 12:05:28;;;;;;;3.00;1.37;;;19.60;99.90;;;;;;5042630;28;20174;-91
2022/06/13 12:08:03;;;;;;;2.73;1.40;;;19.40;99.90;;;;;;5041070;28;20176;-91
2022/06/13 12:10:41;;;;;;;3.70;1.70;;;19.20;99.90;;;;;;5025955;28;20248;-91
2022/06/13 12:13:16;;;;;;;2.80;1.43;;;19.40;99.90;;;;;;5053075;28;20232;-91
2022/06/13 12:15:50;;;;;;;5.13;1.57;;;19.50;1.00;;;;;;5060093;28;20180;-94
2022/06/13 12:18:25;;;;;;;6.90;1.83;;;19.50;1.00;;;;;;5034423;28;20204;-93
2022/06/13 12:21:27;;;;;;;4.50;1.27;;;19.70;1.00;;;;;;5041898;28;20175;-94
2022/06/13 12:24:25;;;;;;;3.90;1.40;;;19.70;1.00;;;;;;5032606;28;20194;-93
2022/06/13 12:27:33;;;;;;;5.07;1.50;;;19.60;1.00;;;;;;5053893;28;20221;-91
2022/06/13 12:30:26;;;;;;;3.93;1.40;;;19.40;1.00;;;;;;5036663;28;20224;-92
2022/06/13 12:33:17;;;;;;;4.03;1.50;;;19.50;1.00;;;;;;4998459;28;20268;-94
2022/06/13 12:36:25;;;;;;;4.50;1.53;;;19.90;99.90;;;;;;5055260;28;20209;-92
2022/06/13 12:39:12;;;;;;;3.00;1.50;;;20.10;99.90;;;;;;5072059;28;20201;-94
2022/06/13 12:42:09;;;;;;;4.13;1.60;;;20.00;99.90;;;;;;5062006;28;20174;-93
2022/06/13 12:44:50;;;;;;;2.93;1.17;;;19.90;1.00;;;;;;5039246;28;20206;-89
2022/06/13 12:47:33;;;;;;;5.47;1.37;;;19.60;1.00;;;;;;5035329;28;20236;-94
2022/06/13 12:50:45;;;;;;;5.10;1.50;;;19.50;99.90;;;;;;5058437;28;20168;-92
2022/06/13 12:53:49;;;;;;;3.50;1.13;;;19.40;99.90;;;;;;5032096;28;20562;-91
2022/06/13 12:56:44;;;;;;;3.13;1.30;;;19.40;1.00;;;;;;5054742;28;20177;-93
2022/06/13 12:59:34;;;;;;;5.10;1.30;;;19.50;1.00;;;;;;5051211;28;20182;-91
2022/06/13 13:02:51;;;;;;;4.43;1.40;;;19.60;1.00;;;;;;5046669;28;20190;-91
2022/06/13 13:05:52;;;;;;;3.63;1.57;;;19.80;1.00;;;;;;5008202;28;20192;-91
2022/06/13 13:08:27;;;;;;;5.97;1.50;;;20.10;1.00;;;;;;5042450;28;20255;-93
2022/06/13 13:11:11;;;;;;;4.37;1.20;;;20.10;15.10;;;;;;5027102;28;20591;-93
2022/06/13 13:13:55;;;;;;;4.13;1.40;;;20.10;99.90;;;;;;5027322;28;20280;-90
2022/06/13 13:16:49;;;;;;;5.30;1.20;;;20.10;1.00;;;;;;5054313;28;20497;-91
2022/06/13 13:19:39;;;;;;;3.20;1.30;;;19.90;99.90;;;;;;5031386;28;20218;-96
2022/06/13 13:22:16;;;;;;;5.13;1.67;;;19.80;1.00;;;;;;5036478;28;20249;-95
2022/06/13 13:25:18;;;;;;;4.23;1.40;;;19.90;99.90;;;;;;5059622;28;20197;-93
2022/06/13 13:28:11;;;;;;;3.23;0.97;;;19.90;1.00;;;;;;5051623;28;20217;-94
2022/06/13 13:31:29;;;;;;;2.83;1.10;;;19.70;99.90;;;;;;5033686;28;20189;-90
2022/06/13 13:34:20;;;;;;;3.77;1.40;;;19.70;1.00;;;;;;5043676;28;20222;-90
2022/06/13 13:37:05;;;;;;;3.00;1.40;;;20.00;99.90;;;;;;5038330;28;20179;-86
2022/06/13 13:39:46;;;;;;;4.10;1.30;;;20.10;1.00;;;;;;5039216;28;20193;-93
2022/06/13 13:42:36;;;;;;;4.60;1.10;;;19.90;99.90;;;;;;5045191;28;20286;-94
2022/06/13 13:45:34;;;;;;;3.93;1.20;;;20.00;1.00;;;;;;5029060;28;20182;-90
2022/06/13 13:48:07;;;;;;;3.70;1.30;;;19.90;1.00;;;;;;5020402;28;20190;-93
2022/06/13 13:50:49;;;;;;;8.07;1.17;;;19.90;99.90;;;;;;5027367;28;20177;-91
2022/06/13 13:53:18;;;;;;;4.13;1.20;;;19.50;99.90;;;;;;5035710;28;20225;-94
2022/06/13 13:55:58;;;;;;;6.67;1.30;;;19.70;99.90;;;;;;5053234;28;20150;-93
2022/06/13 13:58:34;;;;;;;2.30;1.20;;;19.80;1.00;;;;;;5045384;28;20177;-90
2022/06/13 14:01:16;;;;;;;5.73;1.13;;;19.90;14.10;;;;;;5048654;28;20269;-86
2022/06/13 14:04:04;;;;;;;2.70;1.10;;;20.00;1.00;;;;;;5041461;28;20214;-87
2022/06/13 14:07:06;;;;;;;2.27;1.10;;;19.70;99.90;;;;;;5048887;28;20178;-90
2022/06/13 14:09:36;;;;;;;6.87;1.90;;;19.70;1.00;;;;;;5033949;28;20174;-89
2022/06/13 14:12:10;;;;;;;3.33;1.30;;;19.50;1.00;;;;;;5024383;28;20194;-96
2022/06/13 14:15:02;;;;;;;3.07;1.20;;;19.60;99.90;;;;;;5035753;28;20189;-93
2022/06/13 14:17:39;;;;;;;6.37;1.30;;;19.50;1.00;;;;;;5046122;28;20184;-87
2022/06/13 14:20:19;;;;;;;2.27;1.00;;;19.60;99.90;;;;;;5048218;28;20175;-84